Time;durP1;ratioP1;P1;durP2;ratioP2;P2;SDS_P1;SDS_P2;PMS_P1;PMS_P2;Temp;Humidity;BMP_temperature;BMP_pressure;BME280_temperature;BME280_humidity;BME280_pressure;Samples;Min_cycle;Max_cycle;Signal;HPM_P1;HPM_P2
2022/01/09 00:01:55;;;;;;;1.07;1.07;;;;;4.90;98274.00;;;;4991220;28;20655;-74
2022/01/09 00:04:42;;;;;;;1.47;1.37;;;;;4.80;98273.00;;;;4997893;28;21078;-73
2022/01/09 00:07:31;;;;;;;1.30;1.20;;;;;4.80;98270.00;;;;5010368;28;20234;-74
2022/01/09 00:10:18;;;;;;;1.30;1.20;;;;;4.70;98257.00;;;;5016520;28;20225;-70
2022/01/09 00:13:04;;;;;;;1.20;1.10;;;;;4.70;98252.00;;;;5019475;28;20292;-73
2022/01/09 00:15:51;;;;;;;1.43;1.30;;;;;4.70;98260.00;;;;5019082;28;20221;-74
2022/01/09 00:18:37;;;;;;;1.50;1.27;;;;;4.60;98245.00;;;;5019415;28;20279;-74
2022/01/09 00:21:23;;;;;;;1.53;1.40;;;;;4.60;98246.00;;;;5027328;28;20718;-70
2022/01/09 00:24:11;;;;;;;1.57;1.47;;;;;4.60;98250.00;;;;5022828;28;20763;-71
2022/01/09 00:26:58;;;;;;;1.20;1.10;;;;;4.50;98236.00;;;;5017013;28;20297;-73
2022/01/09 00:29:44;;;;;;;1.60;1.50;;;;;4.70;98249.00;;;;5021885;28;20244;-73
2022/01/09 00:32:31;;;;;;;2.10;1.43;;;;;4.70;98241.00;;;;5026486;28;20234;-75
2022/01/09 00:35:17;;;;;;;1.80;1.20;;;;;4.70;98243.00;;;;5017019;28;20767;-71
2022/01/09 00:38:03;;;;;;;1.33;1.23;;;;;4.70;98246.00;;;;5023352;28;20364;-73
2022/01/09 00:40:51;;;;;;;1.20;1.10;;;;;4.60;98240.00;;;;5022633;28;20369;-75
2022/01/09 00:43:37;;;;;;;1.30;1.20;;;;;4.70;98235.00;;;;5020355;28;20658;-74
2022/01/09 00:46:24;;;;;;;1.27;1.10;;;;;4.90;98200.00;;;;5024409;28;20272;-70
2022/01/09 00:49:10;;;;;;;1.30;1.20;;;;;4.80;98231.00;;;;5032623;28;20323;-72
2022/01/09 00:51:57;;;;;;;1.87;1.43;;;;;4.70;98221.00;;;;5021894;28;20234;-74
2022/01/09 00:54:43;;;;;;;1.43;1.33;;;;;4.60;98230.00;;;;5027208;28;20724;-74
2022/01/09 00:57:32;;;;;;;4.03;1.30;;;;;4.50;98225.00;;;;5028713;28;20236;-73
2022/01/09 01:00:19;;;;;;;1.40;1.30;;;;;4.60;98218.00;;;;5028488;28;20782;-72
2022/01/09 01:03:05;;;;;;;1.30;1.20;;;;;4.70;98207.00;;;;5028106;28;20249;-73
2022/01/09 01:05:52;;;;;;;1.40;1.30;;;;;4.60;98222.00;;;;5015025;28;20708;-73
2022/01/09 01:08:38;;;;;;;1.87;1.30;;;;;4.80;98227.00;;;;5027791;28;20240;-73
2022/01/09 01:11:25;;;;;;;1.30;1.20;;;;;4.70;98224.00;;;;5028039;28;20233;-74
2022/01/09 01:14:12;;;;;;;1.40;1.30;;;;;4.60;98226.00;;;;5028477;28;20722;-68
2022/01/09 01:16:58;;;;;;;2.97;1.40;;;;;4.60;98221.00;;;;5023662;28;20310;-68
2022/01/09 01:19:45;;;;;;;1.80;1.40;;;;;4.60;98229.00;;;;5017596;28;20713;-73
2022/01/09 01:22:45;;;;;;;1.10;1.03;;;;;4.50;98227.00;;;;5019051;28;20229;-73
2022/01/09 01:25:32;;;;;;;1.40;1.30;;;;;4.50;98229.00;;;;5028191;28;20287;-72
2022/01/09 01:28:18;;;;;;;1.73;1.50;;;;;4.40;98230.00;;;;5027918;28;20229;-73
2022/01/09 01:31:06;;;;;;;1.40;1.30;;;;;4.50;98237.00;;;;5001051;28;20237;-73
2022/01/09 01:33:52;;;;;;;1.40;1.30;;;;;4.50;98225.00;;;;4991826;28;21076;-73
2022/01/09 01:36:38;;;;;;;1.43;1.27;;;;;4.50;98236.00;;;;5020688;28;20249;-73
2022/01/09 01:39:25;;;;;;;1.57;1.40;;;;;4.50;98235.00;;;;5018558;28;20256;-73
2022/01/09 01:42:11;;;;;;;1.30;1.20;;;;;4.50;98245.00;;;;5020728;28;20767;-73
2022/01/09 01:44:57;;;;;;;1.50;1.40;;;;;4.40;98243.00;;;;5016063;28;20268;-73
2022/01/09 01:47:45;;;;;;;1.67;1.50;;;;;4.50;98254.00;;;;5015333;28;20230;-74
2022/01/09 01:50:36;;;;;;;1.83;1.43;;;;;4.40;98249.00;;;;5023950;28;20646;-74
2022/01/09 01:53:22;;;;;;;1.50;1.40;;;;;4.40;98251.00;;;;5011634;28;20226;-75
2022/01/09 01:56:12;;;;;;;1.67;1.57;;;;;4.60;98250.00;;;;5007188;28;20616;-73
2022/01/09 01:58:58;;;;;;;2.03;1.47;;;;;4.50;98253.00;;;;4993817;28;20233;-71
2022/01/09 02:01:45;;;;;;;3.10;1.70;;;;;4.50;98251.00;;;;5009276;28;20230;-73
2022/01/09 02:04:33;;;;;;;1.93;1.37;;;;;4.50;98259.00;;;;5007475;28;20245;-74
2022/01/09 02:07:19;;;;;;;1.40;1.30;;;;;4.40;98252.00;;;;5004618;28;20245;-73
2022/01/09 02:10:08;;;;;;;1.60;1.50;;;;;4.50;98265.00;;;;5002295;28;20234;-73
2022/01/09 02:12:56;;;;;;;2.27;1.97;;;;;4.50;98261.00;;;;5004831;28;20245;-74
2022/01/09 02:15:44;;;;;;;1.73;1.57;;;;;4.50;98257.00;;;;5024359;28;20364;-73
2022/01/09 02:18:31;;;;;;;1.50;1.40;;;;;4.60;98272.00;;;;5025401;28;20246;-73
2022/01/09 02:21:19;;;;;;;1.70;1.60;;;;;4.60;98267.00;;;;5018264;28;20730;-73
2022/01/09 02:24:05;;;;;;;3.43;1.50;;;;;4.60;98274.00;;;;5021746;28;20249;-75
2022/01/09 02:26:51;;;;;;;1.77;1.40;;;;;4.50;98272.00;;;;5019738;28;20372;-74
2022/01/09 02:29:38;;;;;;;2.03;1.40;;;;;4.50;98290.00;;;;5018249;28;20233;-74
2022/01/09 02:32:24;;;;;;;1.53;1.43;;;;;4.50;98296.00;;;;5020135;28;20245;-75
2022/01/09 02:35:12;;;;;;;2.30;1.87;;;;;4.50;98301.00;;;;5021567;28;20226;-74
2022/01/09 02:38:00;;;;;;;2.53;2.00;;;;;4.70;98292.00;;;;5020460;28;20261;-73
2022/01/09 02:40:51;;;;;;;2.03;1.80;;;;;4.60;98296.00;;;;5022333;28;20426;-73
2022/01/09 02:43:37;;;;;;;2.10;1.80;;;;;4.50;98297.00;;;;5026681;28;20364;-72
2022/01/09 02:46:30;;;;;;;2.87;1.90;;;;;4.50;98307.00;;;;5020973;28;20232;-71
2022/01/09 02:49:16;;;;;;;3.87;1.90;;;;;4.70;98321.00;;;;5026003;28;20317;-74
2022/01/09 02:52:09;;;;;;;4.20;2.33;;;;;4.70;98305.00;;;;5025531;28;20228;-74
2022/01/09 02:55:11;;;;;;;4.23;2.30;;;;;4.60;98314.00;;;;5016606;28;20951;-72
2022/01/09 02:57:59;;;;;;;4.27;2.90;;;;;4.70;98329.00;;;;5024837;28;20307;-74
2022/01/09 03:00:45;;;;;;;4.13;2.90;;;;;4.50;98322.00;;;;5016381;28;20510;-75
2022/01/09 03:03:32;;;;;;;3.80;2.87;;;;;4.60;98337.00;;;;5023083;28;20228;-74
2022/01/09 03:06:19;;;;;;;4.77;3.37;;;;;4.80;98334.00;;;;5019460;28;20229;-74
2022/01/09 03:09:07;;;;;;;4.77;3.47;;;;;4.70;98335.00;;;;5026013;28;20724;-74
2022/01/09 03:11:55;;;;;;;4.50;3.30;;;;;4.70;98337.00;;;;5026034;28;20291;-75
2022/01/09 03:14:41;;;;;;;6.23;3.63;;;;;4.70;98342.00;;;;5023985;28;20624;-75
2022/01/09 03:17:28;;;;;;;5.27;3.40;;;;;4.80;98354.00;;;;5023363;28;20921;-75
2022/01/09 03:20:18;;;;;;;5.93;4.07;;;;;4.80;98349.00;;;;5021362;28;20233;-73
2022/01/09 03:23:05;;;;;;;7.90;3.90;;;;;5.00;98369.00;;;;5016448;28;20221;-74
2022/01/09 03:25:51;;;;;;;7.53;5.00;;;;;4.90;98361.00;;;;5023190;28;20766;-71
2022/01/09 03:28:39;;;;;;;8.07;4.80;;;;;5.10;98371.00;;;;5025427;28;20803;-74
2022/01/09 03:31:25;;;;;;;8.40;4.93;;;;;5.10;98382.00;;;;5025818;28;20308;-73
2022/01/09 03:34:14;;;;;;;6.57;4.50;;;;;5.10;98386.00;;;;5015923;28;20300;-74
2022/01/09 03:37:00;;;;;;;5.63;3.90;;;;;5.00;98386.00;;;;5020113;28;20225;-76
2022/01/09 03:39:46;;;;;;;4.97;3.40;;;;;5.00;98388.00;;;;5024853;28;20764;-73
2022/01/09 03:42:33;;;;;;;4.50;3.07;;;;;5.10;98398.00;;;;5025613;28;20231;-74
2022/01/09 03:45:21;;;;;;;4.73;3.13;;;;;5.10;98418.00;;;;5027103;28;20229;-73
2022/01/09 03:48:07;;;;;;;3.00;1.90;;;;;5.00;98415.00;;;;5015102;28;20973;-74
2022/01/09 03:50:54;;;;;;;4.53;2.10;;;;;5.00;98465.00;;;;5002897;28;20230;-73
2022/01/09 03:53:40;;;;;;;2.50;1.70;;;;;5.00;98447.00;;;;5009340;28;20217;-74
2022/01/09 03:56:27;;;;;;;2.37;1.70;;;;;5.00;98453.00;;;;5003645;28;20245;-74
2022/01/09 03:59:14;;;;;;;1.53;1.33;;;;;5.00;98469.00;;;;5017262;28;20229;-71
2022/01/09 04:02:02;;;;;;;1.03;0.93;;;;;5.00;98461.00;;;;5016782;28;20218;-73
2022/01/09 04:04:48;;;;;;;1.33;1.23;;;;;5.10;98479.00;;;;5016690;28;20228;-73
2022/01/09 04:07:35;;;;;;;2.40;1.40;;;;;5.10;98471.00;;;;5019893;28;20281;-73
2022/01/09 04:10:25;;;;;;;3.47;1.37;;;;;5.00;98482.00;;;;5025410;28;20267;-73
2022/01/09 04:13:15;;;;;;;1.20;1.10;;;;;5.00;98484.00;;;;5019443;28;20230;-74
2022/01/09 04:16:02;;;;;;;3.80;1.10;;;;;5.00;98499.00;;;;5020029;28;20235;-71
2022/01/09 04:18:49;;;;;;;1.90;1.20;;;;;5.10;98502.00;;;;5025128;28;20264;-73
2022/01/09 04:21:35;;;;;;;1.20;1.10;;;;;5.10;98498.00;;;;5027395;28;20257;-70
2022/01/09 04:24:22;;;;;;;4.73;1.33;;;;;5.20;98513.00;;;;5027953;28;20236;-74
2022/01/09 04:27:08;;;;;;;1.67;1.10;;;;;5.10;98517.00;;;;5019658;28;20660;-74
2022/01/09 04:29:54;;;;;;;3.97;1.37;;;;;5.20;98518.00;;;;5022121;28;20332;-73
2022/01/09 04:32:41;;;;;;;0.87;0.87;;;;;5.10;98538.00;;;;5028436;28;20224;-74
2022/01/09 04:35:30;;;;;;;2.60;1.10;;;;;5.20;98530.00;;;;5028858;28;20280;-73
2022/01/09 04:38:16;;;;;;;8.10;1.50;;;;;5.20;98534.00;;;;5024900;28;20638;-73
2022/01/09 04:41:02;;;;;;;6.97;1.50;;;;;5.30;98529.00;;;;5021384;28;20792;-73
2022/01/09 04:43:50;;;;;;;3.53;1.27;;;;;5.30;98557.00;;;;5020888;28;20230;-72
2022/01/09 04:46:42;;;;;;;5.57;1.40;;;;;5.30;98556.00;;;;5027178;28;20241;-73
2022/01/09 04:49:35;;;;;;;6.03;1.60;;;;;5.50;98556.00;;;;5028259;28;20237;-73
2022/01/09 04:52:27;;;;;;;4.43;1.67;;;;;5.30;98576.00;;;;5028074;28;20608;-73
2022/01/09 04:55:14;;;;;;;6.33;1.57;;;;;5.40;98588.00;;;;5016731;28;20250;-73
2022/01/09 04:58:01;;;;;;;9.70;2.23;;;;;5.50;98595.00;;;;5021812;28;20248;-74
2022/01/09 05:00:47;;;;;;;11.47;2.20;;;;;5.40;98604.00;;;;5023232;28;20264;-73
2022/01/09 05:03:34;;;;;;;12.37;2.47;;;;;5.60;98608.00;;;;5028652;28;20229;-73
2022/01/09 05:06:21;;;;;;;9.30;1.80;;;;;5.60;98636.00;;;;5025108;28;20233;-73
2022/01/09 05:09:10;;;;;;;10.33;2.40;;;;;5.70;98636.00;;;;5028017;28;20236;-73
2022/01/09 05:11:56;;;;;;;14.90;2.40;;;;;5.80;98639.00;;;;5021662;28;20279;-73
2022/01/09 05:14:43;;;;;;;19.30;3.07;;;;;5.70;98651.00;;;;5027843;28;20221;-69
2022/01/09 05:17:31;;;;;;;11.00;2.57;;;;;5.60;98651.00;;;;5027741;28;20866;-73
2022/01/09 05:20:17;;;;;;;18.47;2.60;;;;;5.60;98671.00;;;;5020047;28;20692;-73
2022/01/09 05:23:03;;;;;;;16.53;2.93;;;;;5.70;98662.00;;;;5022525;28;20224;-74
2022/01/09 05:25:51;;;;;;;20.20;3.30;;;;;5.80;98668.00;;;;5026996;28;20584;-74
2022/01/09 05:28:38;;;;;;;12.43;2.80;;;;;5.80;98678.00;;;;5027463;28;21898;-73
2022/01/09 05:31:24;;;;;;;25.97;3.90;;;;;5.70;98685.00;;;;5027965;28;20299;-74
2022/01/09 05:34:10;;;;;;;12.80;2.80;;;;;5.70;98699.00;;;;5027689;28;20353;-74
2022/01/09 05:36:57;;;;;;;20.57;3.57;;;;;5.80;98694.00;;;;5021706;28;20701;-73
2022/01/09 05:39:43;;;;;;;11.27;3.03;;;;;5.90;98656.00;;;;5027305;28;20237;-74
2022/01/09 05:42:30;;;;;;;15.70;3.43;;;;;5.90;98692.00;;;;5027296;28;20225;-72
2022/01/09 05:45:18;;;;;;;19.93;4.13;;;;;5.90;98707.00;;;;5027622;28;20229;-73
2022/01/09 05:48:06;;;;;;;23.03;4.27;;;;;5.90;98735.00;;;;5022558;28;20237;-73
2022/01/09 05:50:52;;;;;;;15.77;3.50;;;;;5.90;98732.00;;;;5023275;28;20237;-73
2022/01/09 05:53:39;;;;;;;13.07;3.00;;;;;5.90;98745.00;;;;5025857;28;20300;-74
2022/01/09 05:56:25;;;;;;;9.10;2.90;;;;;5.90;98748.00;;;;5018982;28;20247;-72
2022/01/09 05:59:13;;;;;;;16.87;3.10;;;;;5.90;98752.00;;;;5027026;28;20645;-72
2022/01/09 06:01:59;;;;;;;15.10;3.30;;;;;5.80;98757.00;;;;5020980;28;20225;-72
2022/01/09 06:04:46;;;;;;;15.03;3.37;;;;;5.70;98773.00;;;;5026626;28;20275;-69
2022/01/09 06:07:32;;;;;;;18.43;3.27;;;;;5.70;98772.00;;;;5022712;28;20909;-75
2022/01/09 06:10:18;;;;;;;21.40;3.50;;;;;5.80;98800.00;;;;5027087;28;20288;-73
2022/01/09 06:13:04;;;;;;;9.63;2.83;;;;;5.80;98795.00;;;;5026965;28;20233;-74
2022/01/09 06:15:52;;;;;;;8.00;3.00;;;;;5.70;98804.00;;;;5015210;28;20230;-74
2022/01/09 06:18:39;;;;;;;11.37;3.37;;;;;5.70;98794.00;;;;5026217;28;20241;-72
2022/01/09 06:21:27;;;;;;;11.10;3.37;;;;;5.80;98802.00;;;;5019564;28;20733;-73
2022/01/09 06:24:13;;;;;;;11.23;3.00;;;;;5.70;98812.00;;;;5017972;28;20241;-73
2022/01/09 06:26:59;;;;;;;15.73;3.77;;;;;5.70;98816.00;;;;5022094;28;20267;-72
2022/01/09 06:29:46;;;;;;;18.47;3.50;;;;;5.80;98805.00;;;;5018498;28;20232;-73
2022/01/09 06:32:34;;;;;;;24.77;3.77;;;;;5.70;98816.00;;;;5026262;28;20612;-73
2022/01/09 06:35:21;;;;;;;20.40;3.43;;;;;5.70;98818.00;;;;5026803;28;20228;-72
2022/01/09 06:38:09;;;;;;;21.43;3.30;;;;;5.80;98832.00;;;;5021393;28;20233;-73
2022/01/09 06:40:55;;;;;;;14.50;3.07;;;;;5.80;98845.00;;;;5018413;28;20268;-73
2022/01/09 06:43:41;;;;;;;14.20;3.20;;;;;5.80;98842.00;;;;5024884;28;20245;-73
2022/01/09 06:46:27;;;;;;;16.17;3.33;;;;;5.70;98824.00;;;;5025889;28;20288;-73
2022/01/09 06:49:15;;;;;;;17.00;3.70;;;;;5.80;98865.00;;;;5026008;28;20751;-73
2022/01/09 06:52:02;;;;;;;18.13;3.40;;;;;5.70;98871.00;;;;5020446;28;20742;-73
2022/01/09 06:54:48;;;;;;;11.37;3.13;;;;;5.70;98880.00;;;;5019151;28;20234;-74
2022/01/09 06:57:34;;;;;;;10.70;3.03;;;;;5.70;98886.00;;;;5024964;28;20244;-74
2022/01/09 07:00:22;;;;;;;16.57;3.73;;;;;5.60;98888.00;;;;5025975;28;20360;-73
2022/01/09 07:03:08;;;;;;;15.07;3.33;;;;;5.60;98902.00;;;;5021427;28;20608;-73
2022/01/09 07:05:56;;;;;;;17.40;3.10;;;;;5.70;98905.00;;;;5017687;28;20234;-73
2022/01/09 07:08:43;;;;;;;18.43;2.80;;;;;5.70;98908.00;;;;5013342;28;20237;-73
2022/01/09 07:11:29;;;;;;;11.67;3.07;;;;;5.70;98918.00;;;;5038007;28;20229;-73
2022/01/09 07:14:15;;;;;;;12.67;3.40;;;;;5.60;98925.00;;;;5026149;28;20303;-73
2022/01/09 07:17:02;;;;;;;12.80;3.60;;;;;5.70;98933.00;;;;5015545;28;20242;-73
2022/01/09 07:19:49;;;;;;;18.03;3.07;;;;;5.70;98939.00;;;;5025904;28;20232;-73
2022/01/09 07:22:36;;;;;;;19.60;3.10;;;;;5.80;98938.00;;;;5025282;28;20229;-73
2022/01/09 07:25:23;;;;;;;22.50;3.40;;;;;5.80;98953.00;;;;5018673;28;20234;-73
2022/01/09 07:28:09;;;;;;;21.40;3.47;;;;;5.80;98964.00;;;;5020870;28;20241;-71
2022/01/09 07:30:56;;;;;;;19.70;3.77;;;;;5.70;98961.00;;;;5024880;28;20232;-72
2022/01/09 07:33:42;;;;;;;16.93;3.50;;;;;5.60;98981.00;;;;5025696;28;20704;-73
2022/01/09 07:36:28;;;;;;;16.40;3.57;;;;;5.70;98985.00;;;;5023914;28;20704;-73
2022/01/09 07:39:16;;;;;;;15.60;3.30;;;;;5.70;98989.00;;;;5009977;28;20389;-72
2022/01/09 07:42:04;;;;;;;11.37;2.80;;;;;5.70;98990.00;;;;5012915;28;20348;-73
2022/01/09 07:44:51;;;;;;;18.87;3.40;;;;;5.60;98982.00;;;;5018298;28;20245;-74
2022/01/09 07:47:38;;;;;;;17.60;3.50;;;;;5.70;99003.00;;;;5020238;28;20261;-73
2022/01/09 07:50:27;;;;;;;11.63;3.17;;;;;5.60;99017.00;;;;5025691;28;20236;-72
2022/01/09 07:53:15;;;;;;;15.87;2.87;;;;;5.50;99035.00;;;;5025403;28;20791;-74
2022/01/09 07:56:05;;;;;;;13.43;2.77;;;;;5.60;99034.00;;;;5024718;28;20324;-73
2022/01/09 07:58:51;;;;;;;11.50;3.07;;;;;5.70;98999.00;;;;5015897;28;20234;-71
2022/01/09 08:01:37;;;;;;;16.90;2.97;;;;;5.70;99049.00;;;;5023461;28;20652;-73
2022/01/09 08:04:23;;;;;;;13.10;2.83;;;;;5.70;99047.00;;;;5025388;28;20930;-73
2022/01/09 08:07:10;;;;;;;11.33;2.67;;;;;5.60;99057.00;;;;5025433;28;20315;-73
2022/01/09 08:09:56;;;;;;;19.73;2.83;;;;;5.60;99060.00;;;;5012957;28;20283;-73
2022/01/09 08:12:44;;;;;;;18.20;3.00;;;;;5.50;99066.00;;;;5009763;28;20229;-73
2022/01/09 08:15:30;;;;;;;13.83;2.70;;;;;5.60;99080.00;;;;5009864;28;20706;-74
2022/01/09 08:18:17;;;;;;;12.03;2.57;;;;;5.60;99078.00;;;;5022496;28;20241;-75
2022/01/09 08:21:04;;;;;;;8.17;2.60;;;;;5.60;99079.00;;;;5023114;28;20244;-76
2022/01/09 08:23:51;;;;;;;12.40;3.50;;;;;5.70;99082.00;;;;5015753;28;20232;-74
2022/01/09 08:26:37;;;;;;;16.43;5.03;;;;;5.70;99088.00;;;;5015527;28;20237;-71
2022/01/09 08:29:28;;;;;;;13.40;2.80;;;;;5.70;99088.00;;;;5013261;28;20233;-74
2022/01/09 08:32:15;;;;;;;11.50;2.90;;;;;5.70;99093.00;;;;5015799;28;20237;-75
2022/01/09 08:35:03;;;;;;;13.43;2.97;;;;;5.70;99105.00;;;;5020128;28;20232;-74
2022/01/09 08:37:51;;;;;;;10.63;2.87;;;;;5.60;99099.00;;;;5034634;28;20233;-74
2022/01/09 08:40:38;;;;;;;8.20;2.63;;;;;5.70;99103.00;;;;5022284;28;20812;-71
2022/01/09 08:43:24;;;;;;;12.50;3.10;;;;;5.70;99101.00;;;;5018836;28;20232;-73
2022/01/09 08:46:12;;;;;;;12.10;3.53;;;;;5.50;99118.00;;;;5015554;28;20607;-73
2022/01/09 08:48:59;;;;;;;12.77;2.80;;;;;5.50;99097.00;;;;5023642;28;21373;-73
2022/01/09 08:51:46;;;;;;;10.77;2.97;;;;;5.70;99126.00;;;;5024141;28;20244;-73
2022/01/09 08:54:32;;;;;;;15.70;2.97;;;;;5.60;99102.00;;;;5018900;28;20626;-73
2022/01/09 08:57:18;;;;;;;16.70;4.20;;;;;5.80;99136.00;;;;5025625;28;20241;-72
2022/01/09 09:00:06;;;;;;;10.27;3.90;;;;;5.80;99133.00;;;;5024595;28;20248;-73
2022/01/09 09:02:53;;;;;;;11.90;3.60;;;;;5.80;99137.00;;;;5023945;28;20237;-73
2022/01/09 09:05:40;;;;;;;14.73;3.23;;;;;5.70;99141.00;;;;5038091;28;20229;-75
2022/01/09 09:08:26;;;;;;;13.03;3.37;;;;;5.70;99154.00;;;;5026187;28;20632;-74
2022/01/09 09:11:13;;;;;;;9.47;3.27;;;;;5.80;99141.00;;;;5027737;28;20233;-74
2022/01/09 09:13:59;;;;;;;9.97;2.87;;;;;5.80;99160.00;;;;5022587;28;20355;-74
2022/01/09 09:16:45;;;;;;;10.53;3.30;;;;;5.80;99166.00;;;;5028218;28;20239;-73
2022/01/09 09:19:33;;;;;;;8.83;3.87;;;;;5.70;99163.00;;;;5026330;28;20233;-74
2022/01/09 09:22:20;;;;;;;15.90;4.30;;;;;5.90;99174.00;;;;5024197;28;20230;-74
2022/01/09 09:25:08;;;;;;;13.30;2.97;;;;;5.70;99183.00;;;;5021948;28;20228;-73
2022/01/09 09:27:54;;;;;;;12.37;3.00;;;;;5.90;99187.00;;;;4993773;28;20725;-73
2022/01/09 09:30:41;;;;;;;8.40;3.10;;;;;5.90;99182.00;;;;5012659;28;20229;-74
2022/01/09 09:33:28;;;;;;;11.27;3.27;;;;;5.90;99194.00;;;;5003968;28;20256;-75
2022/01/09 09:36:16;;;;;;;14.47;6.00;;;;;5.80;99200.00;;;;5006538;28;20273;-74
2022/01/09 09:39:03;;;;;;;10.00;3.43;;;;;5.80;99216.00;;;;5007717;28;20869;-73
2022/01/09 09:41:51;;;;;;;10.93;3.70;;;;;5.90;99222.00;;;;5002090;28;20226;-74
2022/01/09 09:44:37;;;;;;;11.20;3.27;;;;;6.00;99216.00;;;;5006871;28;20377;-73
2022/01/09 09:47:24;;;;;;;33.80;8.97;;;;;6.00;99219.00;;;;5013711;28;20352;-74
2022/01/09 09:50:13;;;;;;;12.70;3.40;;;;;6.10;99204.00;;;;5003133;28;20250;-74
2022/01/09 09:53:02;;;;;;;11.70;4.33;;;;;6.10;99231.00;;;;4998888;28;20234;-75
2022/01/09 09:55:51;;;;;;;13.27;4.00;;;;;6.00;99235.00;;;;4997913;28;20281;-73
2022/01/09 09:58:39;;;;;;;16.57;4.17;;;;;6.10;99242.00;;;;5023477;28;20833;-74
2022/01/09 10:01:28;;;;;;;13.73;4.43;;;;;6.00;99246.00;;;;5022942;28;20295;-73
2022/01/09 10:04:14;;;;;;;20.13;5.17;;;;;6.10;99256.00;;;;5006140;28;20313;-74
2022/01/09 10:07:00;;;;;;;14.43;3.70;;;;;6.00;99245.00;;;;5000604;28;20713;-73
2022/01/09 10:09:54;;;;;;;10.57;3.70;;;;;6.10;99249.00;;;;5013514;28;20248;-75
2022/01/09 10:12:41;;;;;;;15.33;3.20;;;;;6.10;99264.00;;;;4998408;28;20312;-74
2022/01/09 10:15:28;;;;;;;20.73;7.30;;;;;6.10;99254.00;;;;5003884;28;20620;-74
2022/01/09 10:18:14;;;;;;;12.10;3.70;;;;;6.00;99266.00;;;;5008217;28;20225;-74
2022/01/09 10:21:05;;;;;;;16.23;4.00;;;;;6.10;99262.00;;;;5005012;28;20237;-74
2022/01/09 10:24:01;;;;;;;13.77;3.40;;;;;6.20;99264.00;;;;4998090;28;20230;-73
2022/01/09 10:26:51;;;;;;;11.63;3.53;;;;;6.30;99267.00;;;;5019782;28;20353;-74
2022/01/09 10:29:37;;;;;;;15.77;5.23;;;;;6.20;99273.00;;;;5026263;28;20240;-74
2022/01/09 10:32:29;;;;;;;7.20;2.90;;;;;6.20;99282.00;;;;5026939;28;20764;-74
2022/01/09 10:35:17;;;;;;;10.67;3.00;;;;;6.30;99284.00;;;;5027423;28;20292;-73
2022/01/09 10:38:12;;;;;;;8.97;4.53;;;;;6.40;99285.00;;;;5021524;28;20292;-73
2022/01/09 10:41:01;;;;;;;13.87;4.37;;;;;6.40;99290.00;;;;5024043;28;20241;-74
2022/01/09 10:43:50;;;;;;;8.43;3.03;;;;;6.50;99292.00;;;;4991734;28;20234;-75
2022/01/09 10:46:37;;;;;;;10.67;3.90;;;;;6.50;99296.00;;;;5019350;28;20360;-73
2022/01/09 10:49:24;;;;;;;9.67;3.20;;;;;6.40;99300.00;;;;5010139;28;20320;-74
2022/01/09 10:52:16;;;;;;;10.03;3.00;;;;;6.50;99304.00;;;;5018355;28;20229;-74
2022/01/09 10:55:07;;;;;;;9.93;3.53;;;;;6.40;99311.00;;;;5011517;28;20238;-74
2022/01/09 10:57:53;;;;;;;10.23;3.53;;;;;6.50;99317.00;;;;5014693;28;20321;-74
2022/01/09 11:00:41;;;;;;;5.83;2.80;;;;;6.50;99305.00;;;;5011826;28;20237;-73
2022/01/09 11:03:27;;;;;;;8.57;2.97;;;;;6.50;99316.00;;;;5017742;28;20296;-74
2022/01/09 11:06:14;;;;;;;12.77;3.70;;;;;6.60;99326.00;;;;5004347;28;20238;-73
2022/01/09 11:09:03;;;;;;;9.47;3.33;;;;;6.40;99332.00;;;;4998754;28;20238;-74
2022/01/09 11:11:51;;;;;;;12.20;4.10;;;;;6.50;99336.00;;;;5002133;28;20270;-74
2022/01/09 11:14:40;;;;;;;8.93;3.30;;;;;6.50;99338.00;;;;5004821;28;20601;-74
2022/01/09 11:17:29;;;;;;;17.67;5.97;;;;;6.50;99338.00;;;;5002142;28;20230;-72
2022/01/09 11:20:17;;;;;;;6.83;3.57;;;;;6.60;99342.00;;;;5000839;28;20851;-73
2022/01/09 11:23:04;;;;;;;9.23;3.67;;;;;6.70;99365.00;;;;5011927;28;20756;-72
2022/01/09 11:25:54;;;;;;;8.00;3.27;;;;;6.60;99355.00;;;;4995161;28;20346;-74
2022/01/09 11:28:44;;;;;;;9.40;3.30;;;;;6.80;99356.00;;;;5000162;28;20720;-73
2022/01/09 11:31:39;;;;;;;12.17;4.17;;;;;6.60;99369.00;;;;4992026;28;20807;-72
2022/01/09 11:34:35;;;;;;;8.70;3.33;;;;;6.50;99366.00;;;;4992430;28;20241;-72
2022/01/09 11:37:27;;;;;;;10.77;3.60;;;;;6.70;99374.00;;;;4991634;28;20238;-72
2022/01/09 11:40:25;;;;;;;8.93;3.40;;;;;6.70;99392.00;;;;5010761;28;20225;-73
2022/01/09 11:43:14;;;;;;;11.37;3.43;;;;;6.80;99375.00;;;;5018366;28;20224;-74
2022/01/09 11:46:03;;;;;;;10.73;3.00;;;;;6.80;99391.00;;;;5014820;28;20303;-72
2022/01/09 11:49:07;;;;;;;13.33;3.60;;;;;6.90;99390.00;;;;5008134;28;20274;-75
2022/01/09 11:51:56;;;;;;;12.60;3.23;;;;;6.70;99395.00;;;;5006574;28;20249;-73
2022/01/09 11:54:51;;;;;;;18.80;2.97;;;;;6.70;99390.00;;;;4996300;28;20297;-73
2022/01/09 11:57:41;;;;;;;6.30;2.50;;;;;6.60;99403.00;;;;5018396;28;20232;-72
2022/01/09 12:00:33;;;;;;;7.73;2.97;;;;;6.70;99402.00;;;;5013531;28;20232;-71
2022/01/09 12:03:37;;;;;;;12.23;4.20;;;;;7.00;99397.00;;;;5010101;28;20233;-75
2022/01/09 12:06:40;;;;;;;9.40;2.80;;;;;7.00;99397.00;;;;5015303;28;20628;-74
2022/01/09 12:09:34;;;;;;;24.00;7.73;;;;;7.10;99402.00;;;;5014710;28;20240;-74
2022/01/09 12:12:22;;;;;;;17.57;7.20;;;;;6.90;99414.00;;;;5009671;28;20242;-74
2022/01/09 12:15:09;;;;;;;12.60;4.30;;;;;7.00;99419.00;;;;5025744;28;20356;-76
2022/01/09 12:17:58;;;;;;;10.40;3.00;;;;;6.90;99418.00;;;;5027143;28;20236;-73
2022/01/09 12:20:45;;;;;;;11.23;4.10;;;;;6.80;99415.00;;;;5024196;28;20889;-73
2022/01/09 12:23:31;;;;;;;12.53;3.53;;;;;7.10;99418.00;;;;5028037;28;20244;-75
2022/01/09 12:26:28;;;;;;;11.53;3.17;;;;;7.00;99411.00;;;;5029307;28;20236;-73
2022/01/09 12:29:44;;;;;;;8.40;3.00;;;;;7.00;99420.00;;;;5029456;28;20287;-73
2022/01/09 12:32:43;;;;;;;7.03;2.33;;;;;6.90;99418.00;;;;5027378;28;20287;-73
2022/01/09 12:35:29;;;;;;;11.57;2.70;;;;;7.00;99425.00;;;;5029472;28;20303;-74
2022/01/09 12:38:16;;;;;;;10.13;3.53;;;;;6.90;99417.00;;;;5028795;28;20237;-73
2022/01/09 12:41:05;;;;;;;9.13;3.53;;;;;7.00;99422.00;;;;5024774;28;20233;-73
2022/01/09 12:44:00;;;;;;;7.50;2.87;;;;;7.10;99417.00;;;;5019521;28;20771;-72
2022/01/09 12:46:48;;;;;;;11.70;5.70;;;;;7.00;99434.00;;;;5016648;28;20229;-74
2022/01/09 12:49:34;;;;;;;13.37;4.00;;;;;7.20;99436.00;;;;5020518;28;20284;-73
2022/01/09 12:52:21;;;;;;;12.70;4.47;;;;;7.20;99435.00;;;;5021893;28;20228;-73
2022/01/09 12:55:10;;;;;;;12.63;3.40;;;;;7.00;99436.00;;;;5012151;28;20556;-71
2022/01/09 12:58:22;;;;;;;6.37;2.83;;;;;7.10;99433.00;;;;5011009;28;20357;-73
2022/01/09 13:01:19;;;;;;;6.90;2.87;;;;;7.10;99408.00;;;;5037572;28;20229;-74
2022/01/09 13:04:10;;;;;;;10.03;4.50;;;;;7.30;99451.00;;;;5019216;28;20609;-72
2022/01/09 13:06:58;;;;;;;9.70;3.30;;;;;7.10;99441.00;;;;5021764;28;20229;-72
2022/01/09 13:09:44;;;;;;;10.23;3.17;;;;;7.10;99443.00;;;;5022239;28;20252;-74
2022/01/09 13:12:30;;;;;;;9.67;2.90;;;;;7.30;99445.00;;;;5021821;28;20342;-72
2022/01/09 13:15:30;;;;;;;11.10;3.00;;;;;7.10;99436.00;;;;5024511;28;20233;-72
2022/01/09 13:18:35;;;;;;;8.70;2.90;;;;;7.00;99462.00;;;;5019496;28;20249;-73
2022/01/09 13:21:23;;;;;;;8.13;2.97;;;;;7.00;99467.00;;;;5024631;28;20229;-74
2022/01/09 13:24:11;;;;;;;7.03;3.10;;;;;7.10;99468.00;;;;5027399;28;20233;-75
2022/01/09 13:26:59;;;;;;;8.13;3.03;;;;;7.10;99468.00;;;;5012315;28;20233;-72
2022/01/09 13:29:55;;;;;;;11.57;3.03;;;;;7.10;99462.00;;;;5026408;28;20227;-73
2022/01/09 13:32:42;;;;;;;7.07;3.10;;;;;7.00;99462.00;;;;5027187;28;20225;-74
2022/01/09 13:35:30;;;;;;;7.73;2.90;;;;;6.90;99467.00;;;;5020250;28;20237;-71
2022/01/09 13:38:16;;;;;;;16.63;7.73;;;;;6.90;99463.00;;;;5014788;28;20234;-72
2022/01/09 13:41:03;;;;;;;9.83;3.20;;;;;6.90;99480.00;;;;5020171;28;20337;-72
2022/01/09 13:43:49;;;;;;;7.83;2.70;;;;;6.90;99473.00;;;;5011684;28;20233;-73
2022/01/09 13:46:36;;;;;;;9.97;3.40;;;;;7.00;99479.00;;;;5016326;28;20230;-70
2022/01/09 13:49:22;;;;;;;10.67;3.03;;;;;7.10;99479.00;;;;5025933;28;20878;-69
2022/01/09 13:52:14;;;;;;;8.53;3.30;;;;;7.20;99500.00;;;;5023258;28;20229;-72
2022/01/09 13:55:03;;;;;;;6.27;3.93;;;;;7.10;99500.00;;;;5021937;28;20599;-72
2022/01/09 13:57:52;;;;;;;12.40;3.43;;;;;7.20;99482.00;;;;5023253;28;20689;-72
2022/01/09 14:00:41;;;;;;;7.53;3.20;;;;;7.30;99510.00;;;;5027740;28;20249;-74
2022/01/09 14:03:29;;;;;;;12.63;2.97;;;;;7.50;99511.00;;;;5023169;28;20248;-73
2022/01/09 14:06:21;;;;;;;8.40;3.53;;;;;7.40;99517.00;;;;5027133;28;20716;-72
2022/01/09 14:09:08;;;;;;;6.80;2.43;;;;;7.40;99514.00;;;;5023372;28;20712;-74